»·PEaware :: N407CF KWHP-L35

N407CF :: KWHP-L35

FLIGHT INFORMATION

Flight Status: Arrived
Operator: Privately registered:
United States
More flights under this callsign
Pilot: Anonymous 5456 (5456)
Aircraft: CESSNA 404 TITAN
(C404)
More flights by this aircraft type
Origin: KWHP Whiteman
United States
Destination: L35 Big Bear City
United States
More flights between these airports :: More routes between these airports
Route: VNY V186 PDZ V8 DAWNA
File this flight plan on PilotEdge
Remarks:
Altitude:
(Current/Filed)
11,000ft
Speed:
(Current/Filed)
180kts
Departed: 08-Sep-17 08:30 PM
Arrived: 08-Sep-17 09:08 PM
Distance/Time
Traveled:
77nm/0:37
Distance/Time
To Go:
Arrived

Flight Plot

Page will automatically refresh every two minutes.

Flight plan parsing failed; only flown route is shown


Map Options




Map Legend


Flown Route
Filed Route
Departure Airport
Arrival Airport
Navaid (VOR, NDB)
Fix

Horizontal Profiles

Position Reports

Time Latitude Longitude Heading Altitude Ground
Speed
08-Sep-17 20:08 34.258283 -118.409407 229 1007ft 0kts
08-Sep-17 20:09 34.258283 -118.409407 229 1007ft 0kts
08-Sep-17 20:11 34.258283 -118.409407 229 1007ft 0kts
08-Sep-17 20:12 34.258283 -118.409407 229 1007ft 0kts
08-Sep-17 20:13 34.258283 -118.409407 229 1007ft 0kts
08-Sep-17 20:14 34.258283 -118.409407 229 1007ft 0kts
08-Sep-17 20:17 34.258283 -118.409407 229 1007ft 0kts
08-Sep-17 20:18 34.258283 -118.409407 229 1007ft 0kts
08-Sep-17 20:19 34.258283 -118.409407 229 1007ft 0kts
08-Sep-17 20:20 34.258283 -118.409407 229 1007ft 0kts
08-Sep-17 20:21 34.258283 -118.409407 229 1007ft 0kts
08-Sep-17 20:22 34.258283 -118.409407 229 1007ft 0kts
08-Sep-17 20:23 34.258283 -118.409407 229 1007ft 0kts
08-Sep-17 20:24 34.258283 -118.409407 229 1007ft 0kts
08-Sep-17 20:25 34.258283 -118.409407 229 1007ft 0kts
08-Sep-17 20:26 34.258283 -118.409407 229 1007ft 0kts
08-Sep-17 20:27 34.258283 -118.409407 229 1007ft 0kts
08-Sep-17 20:28 34.258283 -118.409407 229 1007ft 0kts
08-Sep-17 20:29 34.258283 -118.409407 229 1007ft 0kts
08-Sep-17 20:30 34.259228 -118.410846 319 1007ft 12kts
08-Sep-17 20:31 34.259322 -118.412856 138 1007ft 6kts
08-Sep-17 20:32 34.257387 -118.410820 138 1007ft 12kts
08-Sep-17 20:33 34.255517 -118.408882 168 1007ft 0kts
08-Sep-17 20:34 34.257279 -118.411363 318 1007ft 74kts
08-Sep-17 20:35 34.272478 -118.437587 272 2058ft 107kts
08-Sep-17 20:36 34.274810 -118.474602 270 3488ft 117kts
08-Sep-17 20:37 34.275644 -118.513531 252 4871ft 126kts
08-Sep-17 20:38 34.249743 -118.509176 158 6045ft 120kts
08-Sep-17 20:39 34.223346 -118.491964 126 7312ft 122kts
08-Sep-17 20:40 34.211999 -118.462046 119 8366ft 124kts
08-Sep-17 20:41 34.197720 -118.418972 118 9796ft 126kts
08-Sep-17 20:42 34.185711 -118.381205 119 10802ft 124kts
08-Sep-17 20:43 34.174965 -118.347695 117 11042ft 156kts
08-Sep-17 20:44 34.158417 -118.295066 116 10963ft 173kts
08-Sep-17 20:45 34.141198 -118.240263 116 10964ft 181kts
08-Sep-17 20:46 34.120194 -118.173582 116 10966ft 183kts
08-Sep-17 20:47 34.105131 -118.125893 116 10968ft 183kts
08-Sep-17 20:48 34.087462 -118.070074 116 10952ft 185kts
08-Sep-17 20:49 34.069212 -118.012486 116 10955ft 184kts
08-Sep-17 20:50 34.050922 -117.954895 116 10960ft 184kts
08-Sep-17 20:51 34.032750 -117.897780 116 10963ft 184kts
08-Sep-17 20:52 34.014666 -117.841046 116 10964ft 184kts
08-Sep-17 20:53 33.996246 -117.783346 116 10958ft 184kts
08-Sep-17 20:54 33.977846 -117.725840 116 10953ft 185kts
08-Sep-17 20:55 33.959480 -117.668548 116 10949ft 185kts
08-Sep-17 20:56 33.940940 -117.610823 116 10948ft 186kts
08-Sep-17 20:57 33.922247 -117.552739 116 10950ft 186kts
08-Sep-17 20:58 33.942785 -117.496616 48 10955ft 205kts
08-Sep-17 20:59 33.982955 -117.447528 47 10955ft 206kts
08-Sep-17 21:00 34.023140 -117.399260 47 10954ft 206kts
08-Sep-17 21:01 34.064761 -117.351573 46 10949ft 207kts
08-Sep-17 21:02 34.105345 -117.303070 47 10946ft 206kts
08-Sep-17 21:03 34.145883 -117.254259 47 10947ft 206kts
08-Sep-17 21:04 34.186362 -117.205439 47 10947ft 206kts
08-Sep-17 21:05 34.226972 -117.156392 47 10947ft 206kts
08-Sep-17 21:06 34.262517 -117.104056 88 10947ft 195kts
08-Sep-17 21:07 34.263094 -117.039248 94 10911ft 194kts
08-Sep-17 21:08 34.262854 -116.976282 94 10070ft 173kts
08-Sep-17 21:09 34.263516 -116.934788 91 8739ft 114kts
08-Sep-17 21:10 34.264215 -116.893474 92 7704ft 102kts
08-Sep-17 21:11 34.263913 -116.859754 90 6756ft 68kts
08-Sep-17 21:12 34.263941 -116.854385 89 6756ft 17kts
08-Sep-17 21:13 34.264619 -116.853380 90 6756ft 0kts

Navigation Log

Ident Type
Flight plan parsing failed, navigation log unavailable